الصفحة الرئيسية
METAR-TAF:

METAR-TAF

مطار :

Payam

كرج, إيران

دائرة عرض: 35-46-34N, خط طول: 050-49-36E, ارتفاع: 1271 متر

مراقبة الطقس الحالي

تاريخ ووقت الإصدار 45 دقيقة قبل الساعة 16:00UTC
ريح 17 عقدة من الغرب/الشمال الغربي
درجة الحرارة 27°درجة مئوية
الرطوبة 32%
ضغط 1010 hPa
الرؤية: 6000 متر
غيوم متفرقة على ارتفاع 3500 قدم, مزن ركامية عمودية.
غيوم مفككة على ارتفاع 10000 قدم

METAR: OIIP 141600Z 30017KT 6000 SCT035TCU BKN100 27/09 Q1010 A2983

زمن: 21:15 (16:45 UTC)

توقعات

تاريخ ووقت الإصدار 2ساعات و 45 دقيقة قبل الساعة 14:00UTC
التوقعات صالحة من14 الساعة 15 UTC إلى 14 الساعة 24 UTC
ريح 20 عقدة من الغرب/الشمال الغربي
الرؤية: 6000 متر
غيوم قليلة على ارتفاع 3500 قدم, مزنة ركامية.
غيوم مفككة على ارتفاع 10000 قدم
مؤقت
من 14 الساعة 15 UTC إلى 14 الساعة 20 UTC
ريح 30 عقدة من الغرب تتزايد حتى 40 عقدة
الرؤية: 1500 متر
غيوم متفرقة على ارتفاع 3000 قدم, مزنة ركامية.
غيوم مفككة على ارتفاع 3500 قدم
غيوم مفككة على ارتفاع 9000 قدم
عاصفة رعدية, مطر, رمل,

TAF: OIIP 141400Z 1415/1424 30020KT 6000 FEW035CB BKN100 TEMPO 1415/1420 26030G40KT 1500 TSRA SA SCT030CB BKN035 BKN090

أرصاد الطقس والتوقعات من أكثر من 4000 مطار (تقارير الطقس للمطار METAR والتنبؤ بالطقس بالمطارTAF).

المحطات المتاحة هي النقط الصفراء والحمراء على الخريطة.

حرك المؤشر فوق النقطة لمعرفة اسم المحطة.

ثم انقر لمعرفة أرصاد وتوقعات الطقس.

لتغيير الخارطة: اضغط على الأزرار الخضراء مع رمز الصليب الأسود للتكبير. على الزر الأخضر مع شرطة للتصغير، أو على الأسهم الخضراء للخرائط المجاورة.


METAR-TAF: